createdAt,value
2023-01-05T00:01:10.028Z,8.22
2023-01-05T00:03:40.032Z,8.12
2023-01-05T00:06:15.750Z,8.16
2023-01-05T00:08:42.398Z,8.18
2023-01-05T00:11:38.965Z,8.17
2023-01-05T00:14:25.338Z,8.14
2023-01-05T00:17:10.687Z,8.15
2023-01-05T00:19:55.954Z,8.19
2023-01-05T00:22:30.706Z,8.19
2023-01-05T00:25:12.115Z,8.16
2023-01-05T00:27:40.861Z,8.19
2023-01-05T00:30:08.535Z,8.16
2023-01-05T00:32:35.371Z,8.18
2023-01-05T00:35:02.339Z,8.17
2023-01-05T00:37:32.481Z,8.16
2023-01-05T00:39:59.220Z,8.18
2023-01-05T00:42:26.061Z,8.16
2023-01-05T00:44:52.738Z,8.27
2023-01-05T00:47:19.358Z,8.33
2023-01-05T00:49:46.045Z,8.33
2023-01-05T00:52:12.592Z,8.27
2023-01-05T00:54:39.188Z,8.35
2023-01-05T00:57:07.324Z,8.31
2023-01-05T00:59:34.128Z,8.29
2023-01-05T01:02:21.282Z,8.30
2023-01-05T01:04:48.052Z,8.27
2023-01-05T01:07:14.704Z,8.27
2023-01-05T01:09:41.715Z,8.36
2023-01-05T01:12:08.312Z,8.30
2023-01-05T01:14:35.047Z,8.34
2023-01-05T01:17:01.884Z,8.36
2023-01-05T01:19:28.522Z,8.28
2023-01-05T01:21:55.458Z,8.34
2023-01-05T01:24:25.149Z,8.34
2023-01-05T01:26:52.215Z,8.35
2023-01-05T01:29:19.006Z,8.35
2023-01-05T01:31:48.150Z,8.39
2023-01-05T01:34:15.086Z,8.38
2023-01-05T01:36:42.182Z,8.40
2023-01-05T01:39:09.509Z,8.49
2023-01-05T01:41:36.445Z,8.50
2023-01-05T01:44:03.373Z,8.53
2023-01-05T01:46:30.023Z,8.54
2023-01-05T01:49:00.987Z,8.56
2023-01-05T01:51:33.858Z,8.61
2023-01-05T01:54:03.377Z,8.65
2023-01-05T01:56:37.148Z,8.68
2023-01-05T01:59:04.065Z,8.73
2023-01-05T02:01:30.958Z,8.71
2023-01-05T02:03:58.068Z,8.76
2023-01-05T02:06:24.755Z,8.77
2023-01-05T02:08:51.472Z,8.80
2023-01-05T02:11:36.471Z,8.81
2023-01-05T02:14:26.523Z,8.76
2023-01-05T02:17:11.933Z,8.87
2023-01-05T02:19:41.547Z,8.91
2023-01-05T02:22:26.467Z,8.92
2023-01-05T02:24:59.060Z,8.92
2023-01-05T02:27:55.867Z,8.91
2023-01-05T02:30:54.293Z,8.92
2023-01-05T02:33:44.492Z,8.96
2023-01-05T02:36:28.900Z,8.96
2023-01-05T02:38:57.683Z,8.96
2023-01-05T02:41:29.103Z,8.94
2023-01-05T02:43:56.916Z,8.94
2023-01-05T02:46:23.564Z,8.95
2023-01-05T02:48:52.200Z,8.98
2023-01-05T02:51:24.462Z,8.94
2023-01-05T02:54:01.946Z,8.89
2023-01-05T02:56:34.026Z,8.96
2023-01-05T02:59:12.489Z,8.94
2023-01-05T03:01:42.933Z,8.90
2023-01-05T03:04:13.624Z,8.89
2023-01-05T03:06:58.509Z,8.92
2023-01-05T03:09:27.958Z,8.91
2023-01-05T03:12:37.230Z,8.93
2023-01-05T03:15:08.726Z,8.95
2023-01-05T03:17:41.136Z,8.97
2023-01-05T03:20:09.141Z,8.93
2023-01-05T03:22:54.606Z,8.99
2023-01-05T03:25:41.319Z,9.00
2023-01-05T03:28:31.636Z,8.98
2023-01-05T03:31:30.314Z,8.96
2023-01-05T03:34:28.588Z,8.88
2023-01-05T03:37:02.443Z,8.88
2023-01-05T03:39:30.842Z,8.84
2023-01-05T03:41:58.063Z,8.78
2023-01-05T03:44:24.733Z,8.75
2023-01-05T03:46:51.619Z,8.85
2023-01-05T03:49:18.264Z,8.88
2023-01-05T03:51:44.890Z,8.85
2023-01-05T03:54:11.551Z,8.83
2023-01-05T03:56:38.584Z,8.89
2023-01-05T03:59:05.198Z,8.89
2023-01-05T04:01:31.902Z,8.72
2023-01-05T04:03:58.686Z,8.79
2023-01-05T04:06:25.420Z,8.86
2023-01-05T04:08:52.055Z,8.86
2023-01-05T04:11:20.701Z,8.81
2023-01-05T04:13:47.469Z,8.87
2023-01-05T04:16:14.569Z,8.82
2023-01-05T04:18:41.374Z,8.68
2023-01-05T04:21:08.162Z,8.68
2023-01-05T04:23:35.234Z,8.76
2023-01-05T04:26:02.019Z,8.69
2023-01-05T04:28:28.791Z,8.67
2023-01-05T04:30:55.944Z,8.61
2023-01-05T04:33:23.404Z,8.57
2023-01-05T04:35:50.385Z,8.58
2023-01-05T04:38:17.505Z,8.57
2023-01-05T04:40:48.713Z,8.57
2023-01-05T04:43:15.359Z,8.60
2023-01-05T04:45:42.008Z,8.60
2023-01-05T04:48:08.793Z,8.64
2023-01-05T04:50:35.399Z,8.66
2023-01-05T04:53:02.025Z,8.63
2023-01-05T04:55:28.649Z,8.64
2023-01-05T04:57:55.310Z,8.64
2023-01-05T05:00:22.046Z,8.57
2023-01-05T05:02:49.268Z,8.57
2023-01-05T05:05:16.116Z,8.59
2023-01-05T05:07:42.808Z,8.55
2023-01-05T05:10:09.653Z,8.50
2023-01-05T05:12:36.277Z,8.35
2023-01-05T05:15:03.043Z,8.42
2023-01-05T05:17:29.691Z,8.46
2023-01-05T05:19:56.303Z,8.45
2023-01-05T05:22:22.932Z,8.41
2023-01-05T05:24:49.597Z,8.41
2023-01-05T05:27:16.236Z,8.50
2023-01-05T05:29:42.855Z,8.43
2023-01-05T05:32:09.817Z,8.40
2023-01-05T05:34:36.427Z,8.44
2023-01-05T05:37:03.052Z,8.39
2023-01-05T05:39:29.728Z,8.39
2023-01-05T05:41:56.379Z,8.40
2023-01-05T05:44:23.026Z,8.38
2023-01-05T05:46:49.681Z,8.44
2023-01-05T05:49:16.530Z,8.48
2023-01-05T05:51:43.127Z,8.38
2023-01-05T05:54:09.841Z,8.43
2023-01-05T05:56:36.455Z,8.41
2023-01-05T05:59:03.140Z,8.37
2023-01-05T06:01:29.989Z,8.32
2023-01-05T06:03:56.861Z,8.32
2023-01-05T06:06:23.454Z,8.33
2023-01-05T06:08:50.066Z,8.31
2023-01-05T06:11:16.698Z,8.31
2023-01-05T06:13:43.934Z,8.28
2023-01-05T06:16:10.647Z,8.15
2023-01-05T06:18:37.339Z,8.16
2023-01-05T06:21:04.095Z,8.06
2023-01-05T06:23:30.822Z,8.03
2023-01-05T06:25:57.473Z,7.93
2023-01-05T06:28:25.628Z,7.94
2023-01-05T06:30:52.240Z,7.86
2023-01-05T06:33:18.922Z,7.84
2023-01-05T06:35:45.617Z,7.83
2023-01-05T06:38:12.350Z,7.78
2023-01-05T06:40:40.571Z,7.73
2023-01-05T06:43:07.297Z,7.61
2023-01-05T06:45:34.045Z,7.59
2023-01-05T06:48:01.153Z,7.58
2023-01-05T06:50:27.772Z,7.59
2023-01-05T06:52:54.381Z,7.69
2023-01-05T06:55:21.931Z,7.75
2023-01-05T06:57:48.707Z,7.75
2023-01-05T07:00:15.834Z,7.77
2023-01-05T07:02:42.446Z,7.73
2023-01-05T07:05:09.616Z,7.65
2023-01-05T07:07:36.931Z,7.67
2023-01-05T07:10:04.209Z,7.69
2023-01-05T07:12:30.907Z,7.67
2023-01-05T07:14:58.064Z,7.71
2023-01-05T07:17:25.221Z,7.75
2023-01-05T07:19:51.924Z,7.77
2023-01-05T07:22:18.606Z,7.66
2023-01-05T07:24:45.222Z,7.67
2023-01-05T07:27:11.813Z,7.77
2023-01-05T07:29:38.406Z,7.76
2023-01-05T07:32:05.187Z,7.75
2023-01-05T07:34:31.881Z,7.75
2023-01-05T07:36:58.469Z,7.80
2023-01-05T07:39:25.073Z,7.75
2023-01-05T07:41:51.699Z,7.79
2023-01-05T07:44:18.388Z,7.73
2023-01-05T07:46:44.975Z,7.80
2023-01-05T07:49:11.716Z,7.80
2023-01-05T07:51:38.641Z,7.75
2023-01-05T07:54:05.246Z,7.83
2023-01-05T07:56:31.923Z,7.82
2023-01-05T07:58:59.372Z,7.77
2023-01-05T08:01:26.065Z,7.83
2023-01-05T08:03:52.912Z,7.77
2023-01-05T08:06:20.528Z,7.84
2023-01-05T08:08:47.719Z,7.79
2023-01-05T08:11:15.717Z,7.83
2023-01-05T08:14:02.888Z,7.86
2023-01-05T08:16:31.580Z,7.91
2023-01-05T08:18:59.033Z,7.85
2023-01-05T08:21:25.718Z,7.86
2023-01-05T08:23:53.335Z,7.92
2023-01-05T08:26:22.853Z,7.96
2023-01-05T08:28:50.419Z,7.98
2023-01-05T08:31:20.387Z,7.96
2023-01-05T08:33:47.082Z,7.94
2023-01-05T08:36:16.207Z,7.89
2023-01-05T08:38:49.488Z,7.92
2023-01-05T08:41:28.460Z,7.93
2023-01-05T08:43:57.019Z,7.97
2023-01-05T08:46:26.485Z,7.94
2023-01-05T08:48:55.326Z,7.96
2023-01-05T08:51:22.068Z,7.93
2023-01-05T08:53:48.859Z,7.90
2023-01-05T08:56:15.520Z,7.91
2023-01-05T08:58:42.371Z,7.96
2023-01-05T09:01:15.062Z,7.95
2023-01-05T09:03:41.830Z,7.90
2023-01-05T09:06:11.886Z,7.88
2023-01-05T09:08:39.604Z,7.86
2023-01-05T09:11:13.841Z,7.92
2023-01-05T09:13:40.652Z,7.93
2023-01-05T09:16:08.322Z,7.92
2023-01-05T09:18:35.973Z,7.95
2023-01-05T09:21:03.188Z,8.02
2023-01-05T09:23:29.866Z,8.08
2023-01-05T09:25:56.525Z,8.12
2023-01-05T09:28:23.333Z,8.11
2023-01-05T09:30:51.035Z,8.16
2023-01-05T09:33:18.046Z,8.15
2023-01-05T09:35:44.681Z,8.10
2023-01-05T09:38:11.375Z,8.12
2023-01-05T09:40:41.675Z,8.13
2023-01-05T09:43:14.269Z,8.10
2023-01-05T09:45:41.230Z,8.13
2023-01-05T09:48:10.209Z,8.13
2023-01-05T09:50:36.829Z,8.12
2023-01-05T09:53:04.747Z,8.14
2023-01-05T09:55:33.015Z,8.12
2023-01-05T09:58:03.675Z,8.09
2023-01-05T10:00:30.569Z,8.10
2023-01-05T10:03:00.234Z,8.12
2023-01-05T10:05:28.266Z,8.14
2023-01-05T10:08:02.665Z,8.17
2023-01-05T10:10:37.445Z,8.23
2023-01-05T10:13:08.311Z,8.19
2023-01-05T10:15:46.606Z,8.21
2023-01-05T10:18:16.343Z,8.21
2023-01-05T10:20:54.783Z,8.27
2023-01-05T10:24:03.585Z,8.32
2023-01-05T10:27:14.545Z,8.34
2023-01-05T10:29:44.739Z,8.32
2023-01-05T10:32:19.853Z,8.29
2023-01-05T10:34:56.415Z,8.31
2023-01-05T10:37:39.002Z,8.30
2023-01-05T10:40:28.376Z,8.40
2023-01-05T10:43:39.724Z,8.46
2023-01-05T10:48:57.234Z,8.42
2023-01-05T10:51:23.885Z,8.42
2023-01-05T10:53:50.623Z,8.44
2023-01-05T10:56:26.073Z,8.40
2023-01-05T10:59:10.783Z,8.41
2023-01-05T11:01:38.563Z,8.30
2023-01-05T11:04:33.680Z,8.35
2023-01-05T11:07:06.178Z,8.31
2023-01-05T11:09:33.771Z,8.34
2023-01-05T11:12:02.879Z,8.33
2023-01-05T11:14:33.737Z,8.35
2023-01-05T11:17:05.830Z,8.42
2023-01-05T11:19:37.762Z,8.36
2023-01-05T11:22:04.360Z,8.39
2023-01-05T11:24:35.557Z,8.40
2023-01-05T11:27:05.970Z,8.21
2023-01-05T11:29:32.685Z,8.36
2023-01-05T11:32:05.042Z,8.30
2023-01-05T11:34:34.642Z,8.33
2023-01-05T11:37:07.831Z,8.36
2023-01-05T11:39:46.907Z,8.38
2023-01-05T11:42:23.300Z,8.38
2023-01-05T11:44:59.935Z,8.32
2023-01-05T11:47:29.864Z,8.17
2023-01-05T11:50:08.544Z,8.28
2023-01-05T11:52:38.699Z,8.16
2023-01-05T11:55:20.798Z,8.17
2023-01-05T11:57:49.751Z,7.94
2023-01-05T12:00:28.695Z,7.94
2023-01-05T12:03:34.644Z,7.70
2023-01-05T12:06:27.639Z,7.58
2023-01-05T12:08:57.206Z,7.43
2023-01-05T12:11:24.174Z,7.50
2023-01-05T12:14:12.325Z,7.37
2023-01-05T12:16:55.859Z,7.37
2023-01-05T12:19:28.396Z,7.24
2023-01-05T12:22:21.749Z,7.14
2023-01-05T12:24:54.379Z,7.06
2023-01-05T12:27:27.105Z,6.92
2023-01-05T12:36:25.149Z,6.88
2023-01-05T12:39:06.892Z,6.88
2023-01-05T12:41:43.636Z,6.78
2023-01-05T12:44:47.931Z,6.78
2023-01-05T12:47:29.423Z,6.84
2023-01-05T12:50:00.875Z,6.72
2023-01-05T12:52:33.118Z,6.71
2023-01-05T12:55:06.425Z,6.77
2023-01-05T12:57:42.024Z,6.66
2023-01-05T13:00:14.360Z,6.69
2023-01-05T13:02:44.523Z,6.63
2023-01-05T13:05:20.036Z,6.62
2023-01-05T13:07:46.547Z,6.71
2023-01-05T13:10:20.591Z,6.64
2023-01-05T13:12:50.952Z,6.56
2023-01-05T13:15:44.315Z,6.56
2023-01-05T13:18:15.676Z,6.44
2023-01-05T13:20:45.381Z,6.41
2023-01-05T13:23:18.766Z,6.53
2023-01-05T13:25:58.592Z,6.46
2023-01-05T13:28:27.481Z,6.50
2023-01-05T13:31:34.368Z,6.48
2023-01-05T13:34:26.056Z,6.36
2023-01-05T13:37:11.392Z,6.42
2023-01-05T13:40:00.951Z,6.53
2023-01-05T13:42:52.906Z,6.48
2023-01-05T13:45:29.515Z,6.24
2023-01-05T13:48:25.563Z,6.32
2023-01-05T13:51:33.586Z,6.24
2023-01-05T13:54:05.152Z,6.23
2023-01-05T13:56:33.329Z,6.26
2023-01-05T13:59:19.486Z,6.28
2023-01-05T14:01:56.741Z,6.25
2023-01-05T14:04:26.321Z,6.27
2023-01-05T14:06:59.467Z,5.93
2023-01-05T14:09:37.776Z,5.98
2023-01-05T14:12:07.144Z,5.96
2023-01-05T14:15:04.812Z,5.79
2023-01-05T14:17:53.838Z,5.79
2023-01-05T14:20:40.847Z,5.88
2023-01-05T14:23:22.974Z,5.88
2023-01-05T14:25:53.916Z,5.88
2023-01-05T14:28:35.616Z,5.83
2023-01-05T14:31:08.492Z,5.90
2023-01-05T14:33:46.538Z,5.81
2023-01-05T14:36:25.335Z,5.73
2023-01-05T14:38:52.142Z,5.75
2023-01-05T14:41:29.809Z,5.65
2023-01-05T14:44:06.965Z,5.82
2023-01-05T14:46:46.510Z,5.83
2023-01-05T14:49:30.136Z,5.83
2023-01-05T14:51:59.516Z,5.81
2023-01-05T14:55:04.961Z,5.72
2023-01-05T14:57:49.311Z,5.70
2023-01-05T15:00:41.326Z,5.71
2023-01-05T15:03:36.724Z,5.80
2023-01-05T15:06:15.823Z,5.56
2023-01-05T15:09:15.950Z,5.67
2023-01-05T15:12:07.192Z,5.78
2023-01-05T15:14:59.546Z,5.65
2023-01-05T15:18:00.782Z,5.62
2023-01-05T15:20:58.041Z,5.46
2023-01-05T15:24:02.514Z,5.47
2023-01-05T15:26:50.333Z,5.42
2023-01-05T15:29:38.705Z,5.46
2023-01-05T15:32:44.931Z,5.42
2023-01-05T15:35:22.014Z,5.44
2023-01-05T15:37:52.081Z,5.36
2023-01-05T15:40:21.815Z,5.39
2023-01-05T15:42:50.922Z,5.41
2023-01-05T15:45:20.134Z,5.42
2023-01-05T15:47:47.195Z,5.26
2023-01-05T15:50:32.888Z,5.28
2023-01-05T15:53:00.945Z,5.26
2023-01-05T15:55:28.997Z,5.38
2023-01-05T15:58:01.062Z,5.28
2023-01-05T16:00:38.712Z,5.18
2023-01-05T16:03:28.197Z,5.28
2023-01-05T16:06:00.388Z,5.29
2023-01-05T16:08:27.385Z,5.35
2023-01-05T16:10:57.244Z,5.19
2023-01-05T16:13:31.036Z,5.19
2023-01-05T16:15:59.459Z,5.23
2023-01-05T16:18:33.981Z,5.26
2023-01-05T16:21:05.585Z,5.10
2023-01-05T16:23:40.888Z,5.16
2023-01-05T16:26:15.237Z,5.14
2023-01-05T16:28:41.780Z,5.16
2023-01-05T16:31:32.609Z,5.19
2023-01-05T16:34:17.363Z,5.10
2023-01-05T16:37:03.402Z,5.05
2023-01-05T16:39:37.846Z,5.07
2023-01-05T16:42:40.328Z,5.08
2023-01-05T16:45:29.848Z,5.09
2023-01-05T16:47:56.635Z,4.96
2023-01-05T16:50:23.144Z,5.04
2023-01-05T16:52:56.819Z,5.07
2023-01-05T16:55:28.664Z,5.17
2023-01-05T16:57:56.916Z,5.21
2023-01-05T17:00:29.964Z,5.01
2023-01-05T17:02:57.776Z,4.99
2023-01-05T17:05:26.920Z,5.05
2023-01-05T17:08:14.718Z,5.08
2023-01-05T17:10:41.950Z,5.04
2023-01-05T17:13:16.572Z,5.15
2023-01-05T17:15:45.000Z,5.17
2023-01-05T17:18:24.041Z,5.16
2023-01-05T17:20:52.058Z,5.14
2023-01-05T17:23:21.304Z,5.10
2023-01-05T17:25:48.319Z,5.15
2023-01-05T17:28:15.215Z,5.07
2023-01-05T17:30:42.291Z,4.92
2023-01-05T17:33:09.118Z,4.92
2023-01-05T17:35:36.198Z,4.94
2023-01-05T17:38:02.809Z,5.01
2023-01-05T17:40:29.643Z,4.97
2023-01-05T17:42:56.276Z,4.93
2023-01-05T17:45:24.591Z,4.98
2023-01-05T17:47:51.211Z,5.02
2023-01-05T17:50:21.145Z,4.98
2023-01-05T17:52:47.866Z,5.00
2023-01-05T17:55:14.698Z,4.75
2023-01-05T17:57:42.316Z,4.77
2023-01-05T18:00:11.403Z,4.84
2023-01-05T18:02:38.531Z,4.94
2023-01-05T18:05:05.596Z,4.71
2023-01-05T18:07:32.902Z,4.80
2023-01-05T18:09:59.813Z,4.95
2023-01-05T18:12:27.486Z,4.83
2023-01-05T18:14:54.409Z,4.87
2023-01-05T18:17:22.378Z,4.85
2023-01-05T18:19:49.113Z,4.74
2023-01-05T18:22:16.249Z,4.77
2023-01-05T18:24:43.329Z,4.67
2023-01-05T18:27:10.813Z,4.68
2023-01-05T18:29:38.182Z,4.64
2023-01-05T18:32:05.413Z,4.69
2023-01-05T18:34:32.043Z,4.72
2023-01-05T18:37:05.830Z,4.74
2023-01-05T18:39:33.173Z,4.57
2023-01-05T18:42:02.652Z,4.64
2023-01-05T18:44:29.293Z,4.52
2023-01-05T18:46:56.033Z,4.60
2023-01-05T18:49:22.725Z,4.49
2023-01-05T18:51:51.334Z,4.32
2023-01-05T18:54:18.525Z,4.51
2023-01-05T18:56:45.143Z,4.56
2023-01-05T18:59:14.283Z,4.47
2023-01-05T19:01:44.717Z,4.60
2023-01-05T19:04:12.652Z,4.48
2023-01-05T19:06:39.640Z,4.42
2023-01-05T19:09:08.800Z,4.43
2023-01-05T19:11:36.501Z,4.38
2023-01-05T19:14:04.637Z,4.38
2023-01-05T19:16:34.296Z,4.43
2023-01-05T19:19:08.219Z,4.46
2023-01-05T19:21:37.841Z,4.45
2023-01-05T19:24:06.182Z,4.43
2023-01-05T19:26:33.489Z,4.40
2023-01-05T19:29:01.442Z,4.47
2023-01-05T19:31:29.186Z,4.46
2023-01-05T19:33:58.962Z,4.57
2023-01-05T19:36:32.288Z,4.40
2023-01-05T19:39:00.615Z,4.37
2023-01-05T19:41:27.660Z,4.39
2023-01-05T19:43:55.368Z,4.41
2023-01-05T19:46:23.848Z,4.37
2023-01-05T19:48:50.905Z,4.44
2023-01-05T19:51:23.593Z,4.40
2023-01-05T19:53:57.401Z,4.37
2023-01-05T19:56:26.667Z,4.31
2023-01-05T19:58:56.123Z,4.42
2023-01-05T20:01:24.492Z,4.35
2023-01-05T20:03:51.926Z,4.34
2023-01-05T20:06:23.774Z,4.26
2023-01-05T20:08:54.922Z,4.32
2023-01-05T20:11:39.590Z,4.31
2023-01-05T20:14:20.724Z,4.21
2023-01-05T20:16:52.694Z,4.18
2023-01-05T20:19:20.492Z,4.16
2023-01-05T20:21:48.492Z,4.15
2023-01-05T20:24:22.389Z,4.17
2023-01-05T20:26:50.903Z,4.27
2023-01-05T20:29:20.198Z,4.16
2023-01-05T20:31:55.564Z,4.14
2023-01-05T20:34:24.161Z,4.36
2023-01-05T20:36:51.020Z,4.22
2023-01-05T20:39:22.123Z,4.15
2023-01-05T20:41:50.869Z,4.15
2023-01-05T20:44:23.254Z,4.04
2023-01-05T20:46:51.230Z,4.05
2023-01-05T20:49:18.154Z,3.95
2023-01-05T20:51:44.791Z,3.95
2023-01-05T20:54:11.857Z,3.89
2023-01-05T20:56:40.473Z,4.12
2023-01-05T20:59:10.848Z,3.85
2023-01-05T21:01:37.990Z,3.68
2023-01-05T21:04:05.651Z,3.61
2023-01-05T21:06:32.556Z,3.51
2023-01-05T21:08:59.193Z,3.49
2023-01-05T21:11:26.013Z,3.17
2023-01-05T21:13:54.639Z,3.21
2023-01-05T21:16:23.278Z,3.24
2023-01-05T21:18:50.471Z,3.03
2023-01-05T21:21:18.393Z,2.87
2023-01-05T21:23:47.852Z,2.80
2023-01-05T21:26:15.825Z,2.67
2023-01-05T21:28:43.404Z,2.74
2023-01-05T21:31:21.779Z,2.72
2023-01-05T21:33:48.463Z,2.53
2023-01-05T21:36:17.681Z,2.43
2023-01-05T21:39:02.382Z,2.20
2023-01-05T21:42:11.978Z,2.08
2023-01-05T21:44:39.660Z,1.98
2023-01-05T21:47:06.939Z,1.85
2023-01-05T21:49:34.580Z,1.76
2023-01-05T21:52:19.743Z,1.66
2023-01-05T21:55:04.979Z,1.68
2023-01-05T21:57:31.668Z,1.57
2023-01-05T21:59:58.336Z,1.55
2023-01-05T22:02:24.996Z,1.46
2023-01-05T22:04:51.727Z,1.32
2023-01-05T22:07:18.421Z,1.26
2023-01-05T22:09:45.228Z,1.21
2023-01-05T22:12:11.997Z,1.09
2023-01-05T22:14:38.801Z,1.01
2023-01-05T22:17:06.623Z,1.05
2023-01-05T22:19:33.237Z,0.93
2023-01-05T22:21:59.980Z,0.79
2023-01-05T22:24:26.598Z,0.66
2023-01-05T22:26:53.259Z,0.55
2023-01-05T22:29:19.941Z,0.57
2023-01-05T22:31:46.813Z,0.53
2023-01-05T22:34:13.461Z,0.56
2023-01-05T22:36:40.144Z,0.66
2023-01-05T22:39:07.184Z,0.54
2023-01-05T22:41:33.990Z,0.47
2023-01-05T22:44:05.447Z,0.36
2023-01-05T22:46:32.103Z,0.30
2023-01-05T22:48:59.360Z,0.23
2023-01-05T22:51:35.292Z,0.23
2023-01-05T22:54:04.104Z,0.17
2023-01-05T22:56:34.597Z,0.06
2023-01-05T22:59:01.980Z,0.09
2023-01-05T23:01:33.915Z,0.22
2023-01-05T23:04:05.105Z,0.33
2023-01-05T23:06:34.914Z,0.35
2023-01-05T23:09:02.709Z,0.24
2023-01-05T23:11:35.103Z,0.40
2023-01-05T23:14:03.355Z,0.38
2023-01-05T23:16:30.629Z,0.32
2023-01-05T23:18:59.834Z,0.13
2023-01-05T23:21:27.448Z,-0.31
2023-01-05T23:23:55.389Z,-0.41
2023-01-05T23:26:22.717Z,-0.50
2023-01-05T23:28:49.536Z,-0.64
2023-01-05T23:31:17.428Z,-0.71
2023-01-05T23:33:48.131Z,-0.75
2023-01-05T23:36:16.484Z,-0.73
2023-01-05T23:38:46.068Z,-0.77
2023-01-05T23:41:14.509Z,-0.74
2023-01-05T23:43:42.351Z,-0.75
2023-01-05T23:46:12.033Z,-0.77
2023-01-05T23:48:38.757Z,-0.81
2023-01-05T23:51:11.336Z,-0.85
2023-01-05T23:53:37.962Z,-0.83
2023-01-05T23:56:14.682Z,-0.78
2023-01-05T23:58:42.426Z,-0.64
